Time;durP1;ratioP1;P1;durP2;ratioP2;P2;SDS_P1;SDS_P2;PMS_P1;PMS_P2;Temp;Humidity;BMP_temperature;BMP_pressure;BME280_temperature;BME280_humidity;BME280_pressure;Samples;Min_cycle;Max_cycle;Signal;HPM_P1;HPM_P2
2023/10/23 03:00:51;;;;;;;9.20;5.50;;;6.70;99.90;;;;;;6161534;23;20054;-78
2023/10/23 03:03:17;;;;;;;7.68;5.03;;;6.70;99.90;;;;;;6130518;23;20013;-77
2023/10/23 03:05:42;;;;;;;7.45;5.15;;;6.70;99.90;;;;;;6106780;23;20064;-78
2023/10/23 03:08:08;;;;;;;11.50;7.38;;;6.60;99.90;;;;;;6157094;23;20067;-78
2023/10/23 03:10:34;;;;;;;10.52;7.13;;;6.60;99.90;;;;;;6130772;23;20416;-77
2023/10/23 03:13:00;;;;;;;11.18;6.90;;;6.60;99.90;;;;;;6131766;23;20022;-78
2023/10/23 03:15:26;;;;;;;9.65;6.25;;;6.60;99.90;;;;;;6156816;23;20012;-77
2023/10/23 03:17:51;;;;;;;10.43;6.47;;;6.60;99.90;;;;;;6131107;23;20360;-77
2023/10/23 03:20:18;;;;;;;13.63;7.60;;;6.60;99.90;;;;;;6131012;23;20021;-78
2023/10/23 03:22:44;;;;;;;12.18;8.00;;;6.60;99.90;;;;;;6130510;23;20072;-77
2023/10/23 03:25:10;;;;;;;16.73;9.25;;;6.60;99.90;;;;;;6157393;23;20010;-77
2023/10/23 03:27:36;;;;;;;14.57;9.82;;;6.60;99.90;;;;;;6156615;23;20347;-78
2023/10/23 03:30:02;;;;;;;17.02;10.38;;;6.60;99.90;;;;;;6130511;23;20073;-78
2023/10/23 03:32:29;;;;;;;14.98;9.95;;;6.70;99.90;;;;;;6130344;23;20013;-78
2023/10/23 03:34:55;;;;;;;15.63;10.32;;;6.80;99.90;;;;;;6130511;23;20030;-78
2023/10/23 03:37:20;;;;;;;16.77;10.60;;;6.80;99.90;;;;;;6130202;23;20399;-78
2023/10/23 03:39:46;;;;;;;17.50;10.52;;;6.80;99.90;;;;;;6130297;23;20032;-77
2023/10/23 03:42:11;;;;;;;17.20;10.38;;;6.80;99.90;;;;;;6130318;23;20017;-77
2023/10/23 03:44:37;;;;;;;13.10;8.02;;;6.80;99.90;;;;;;6130398;23;20056;-77
2023/10/23 03:47:04;;;;;;;9.98;6.68;;;6.80;99.90;;;;;;6130453;23;20021;-78
2023/10/23 03:49:29;;;;;;;12.45;7.50;;;6.80;99.90;;;;;;6156389;23;20005;-78
2023/10/23 03:51:55;;;;;;;12.60;8.57;;;6.80;99.90;;;;;;6130198;23;20036;-78
2023/10/23 03:54:21;;;;;;;13.60;7.45;;;6.70;99.90;;;;;;6130279;23;20084;-77
2023/10/23 03:56:46;;;;;;;12.02;7.93;;;6.70;99.90;;;;;;6130218;23;20399;-77
2023/10/23 03:59:12;;;;;;;14.60;8.85;;;6.70;99.90;;;;;;6130222;23;20021;-77
2023/10/23 04:01:37;;;;;;;13.02;8.82;;;6.70;99.90;;;;;;6100641;23;20014;-78
2023/10/23 04:04:03;;;;;;;15.85;10.07;;;6.60;99.90;;;;;;6125072;23;20010;-78
2023/10/23 04:06:29;;;;;;;14.63;9.52;;;6.60;99.90;;;;;;6125301;23;20104;-79
2023/10/23 04:08:54;;;;;;;14.90;9.35;;;6.60;99.90;;;;;;6125322;23;20017;-77
2023/10/23 04:11:20;;;;;;;13.85;9.15;;;6.70;99.90;;;;;;6125230;23;20021;-77
2023/10/23 04:13:46;;;;;;;17.42;9.65;;;6.70;99.90;;;;;;6125280;23;20024;-78
2023/10/23 04:16:12;;;;;;;18.50;10.18;;;6.60;99.90;;;;;;6126792;23;20006;-78
2023/10/23 04:18:38;;;;;;;12.57;8.80;;;6.60;99.90;;;;;;6125504;23;20037;-78
2023/10/23 04:21:09;;;;;;;19.40;9.75;;;6.60;99.90;;;;;;6125068;23;20436;-78
2023/10/23 04:23:36;;;;;;;15.18;9.32;;;6.60;99.90;;;;;;6125126;23;20021;-78
2023/10/23 04:26:03;;;;;;;18.60;9.32;;;6.60;99.90;;;;;;6125106;23;20028;-78
2023/10/23 04:28:29;;;;;;;14.55;8.82;;;6.60;99.90;;;;;;6100802;23;20010;-78
2023/10/23 04:30:55;;;;;;;15.75;9.63;;;6.50;99.90;;;;;;6124964;23;20014;-78
2023/10/23 04:33:22;;;;;;;16.35;9.45;;;6.50;99.90;;;;;;6125151;23;20021;-77
2023/10/23 04:35:55;;;;;;;15.45;8.55;;;6.50;99.90;;;;;;6124980;23;20020;-77
2023/10/23 04:38:21;;;;;;;16.08;9.00;;;6.50;99.90;;;;;;6125725;23;20332;-77
2023/10/23 04:40:47;;;;;;;13.75;7.72;;;6.50;99.90;;;;;;6124967;23;20084;-78
2023/10/23 04:43:13;;;;;;;11.18;6.93;;;6.40;99.90;;;;;;6125059;23;20048;-78
2023/10/23 04:45:40;;;;;;;12.70;8.43;;;6.40;99.90;;;;;;6125198;23;20021;-78
2023/10/23 04:48:06;;;;;;;15.48;8.30;;;6.40;99.90;;;;;;6124943;23;20444;-77
2023/10/23 04:50:37;;;;;;;12.45;8.68;;;6.30;99.90;;;;;;6125407;23;20379;-78
2023/10/23 04:53:03;;;;;;;15.50;8.48;;;6.30;99.90;;;;;;6100587;23;20321;-78
2023/10/23 04:55:36;;;;;;;15.45;9.50;;;6.30;99.90;;;;;;6124894;23;20050;-77
2023/10/23 04:58:02;;;;;;;18.83;8.18;;;6.30;99.90;;;;;;6100380;23;20077;-77
2023/10/23 05:00:28;;;;;;;50.92;9.27;;;6.30;99.90;;;;;;6127170;23;20018;-78
2023/10/23 05:02:54;;;;;;;23.50;7.13;;;6.30;99.90;;;;;;6155781;23;20014;-78
2023/10/23 05:05:20;;;;;;;12.80;6.10;;;6.30;99.90;;;;;;6129659;23;20372;-77
2023/10/23 05:07:46;;;;;;;12.13;7.32;;;6.30;99.90;;;;;;6129736;23;20014;-77
2023/10/23 05:10:12;;;;;;;8.85;5.85;;;6.30;99.90;;;;;;6129627;23;20013;-78
2023/10/23 05:12:38;;;;;;;9.68;6.65;;;6.30;99.90;;;;;;6129682;23;20448;-77
2023/10/23 05:15:05;;;;;;;11.85;7.78;;;6.20;99.90;;;;;;6129286;23;20018;-78
2023/10/23 05:17:31;;;;;;;12.90;7.60;;;6.20;99.90;;;;;;6129646;23;20013;-78
2023/10/23 05:19:57;;;;;;;12.00;7.47;;;6.20;99.90;;;;;;6129631;23;20052;-78
2023/10/23 05:22:23;;;;;;;12.90;7.57;;;6.20;99.90;;;;;;6129966;23;20404;-78
2023/10/23 05:24:49;;;;;;;11.05;6.40;;;6.20;99.90;;;;;;6129618;23;20058;-78
2023/10/23 05:27:17;;;;;;;12.50;7.97;;;6.10;99.90;;;;;;6129715;23;20026;-78
2023/10/23 05:29:43;;;;;;;11.45;7.30;;;6.10;99.90;;;;;;6129556;23;20325;-78
2023/10/23 05:32:09;;;;;;;12.40;7.07;;;6.10;99.90;;;;;;6129453;23;20028;-78
2023/10/23 05:34:34;;;;;;;15.85;8.02;;;6.10;99.90;;;;;;6129555;23;20350;-77
2023/10/23 05:37:00;;;;;;;13.02;7.88;;;6.10;99.90;;;;;;6155575;23;20097;-77
2023/10/23 05:39:26;;;;;;;11.85;7.30;;;6.20;99.90;;;;;;6129560;23;20457;-77
2023/10/23 05:41:52;;;;;;;17.40;8.25;;;6.10;99.90;;;;;;6155548;23;20006;-77
2023/10/23 05:44:18;;;;;;;14.55;8.15;;;6.10;99.90;;;;;;6156318;23;20029;-77
2023/10/23 05:46:43;;;;;;;12.30;7.45;;;6.10;99.90;;;;;;6129469;23;20022;-77
2023/10/23 05:49:09;;;;;;;12.80;7.15;;;6.00;99.90;;;;;;6155646;23;20005;-77
2023/10/23 05:51:34;;;;;;;13.48;7.50;;;6.00;99.90;;;;;;6129465;23;20412;-78
2023/10/23 05:54:00;;;;;;;14.02;7.38;;;6.00;99.90;;;;;;6105182;23;20343;-78
2023/10/23 05:56:26;;;;;;;9.00;5.28;;;6.00;99.90;;;;;;6105139;23;20093;-78
2023/10/23 05:58:51;;;;;;;9.15;4.88;;;6.00;99.90;;;;;;6129618;23;20084;-78
2023/10/23 06:01:17;;;;;;;8.88;4.70;;;5.90;99.90;;;;;;6129331;23;20014;-78
2023/10/23 06:03:43;;;;;;;10.18;5.03;;;6.00;99.90;;;;;;6155653;23;20009;-78
2023/10/23 06:06:09;;;;;;;11.50;4.97;;;5.90;99.90;;;;;;6129260;23;20033;-78
2023/10/23 06:08:35;;;;;;;10.77;5.57;;;5.90;99.90;;;;;;6105211;23;20088;-77
2023/10/23 06:11:01;;;;;;;9.65;5.63;;;5.90;99.90;;;;;;6129557;23;20088;-78
2023/10/23 06:13:27;;;;;;;10.02;4.65;;;5.80;99.90;;;;;;6105001;23;20101;-77
2023/10/23 06:15:53;;;;;;;8.70;5.00;;;5.80;99.90;;;;;;6128790;23;20456;-78
2023/10/23 06:18:19;;;;;;;7.40;4.00;;;5.80;99.90;;;;;;6129128;23;20435;-77
2023/10/23 06:20:45;;;;;;;6.68;4.00;;;5.80;99.90;;;;;;6128899;23;20088;-77
2023/10/23 06:23:11;;;;;;;10.38;6.00;;;5.80;99.90;;;;;;6128803;23;20460;-78
2023/10/23 06:25:36;;;;;;;9.10;6.15;;;5.80;99.90;;;;;;6129309;23;20348;-79
2023/10/23 06:28:03;;;;;;;10.52;6.80;;;5.80;99.90;;;;;;6132457;23;20025;-79
2023/10/23 06:30:29;;;;;;;10.35;6.78;;;5.80;99.90;;;;;;6156962;23;20021;-78
2023/10/23 06:32:55;;;;;;;11.23;6.90;;;5.80;99.90;;;;;;6130999;23;20018;-78
2023/10/23 06:35:20;;;;;;;14.40;7.70;;;5.80;99.90;;;;;;6130689;23;20559;-79
2023/10/23 06:37:48;;;;;;;11.75;7.15;;;5.90;99.90;;;;;;6130642;23;20024;-79
2023/10/23 06:40:14;;;;;;;11.48;6.28;;;5.90;99.90;;;;;;6156682;23;20440;-79
2023/10/23 06:42:40;;;;;;;9.02;6.13;;;5.90;99.90;;;;;;6130541;23;20055;-78
2023/10/23 06:45:06;;;;;;;8.60;5.63;;;5.90;99.90;;;;;;6130820;23;20469;-78
2023/10/23 06:47:32;;;;;;;13.45;7.82;;;5.90;99.90;;;;;;6130716;23;20075;-79
2023/10/23 06:49:59;;;;;;;10.35;7.00;;;5.80;99.90;;;;;;6131069;23;20092;-77
2023/10/23 06:52:25;;;;;;;10.48;7.15;;;5.80;99.90;;;;;;6129906;23;20086;-78
2023/10/23 06:54:51;;;;;;;11.88;7.32;;;5.80;99.90;;;;;;6129703;23;20017;-78
2023/10/23 06:57:16;;;;;;;10.10;7.00;;;5.70;99.90;;;;;;6130590;23;20020;-78
2023/10/23 06:59:42;;;;;;;8.57;6.13;;;5.80;99.90;;;;;;6130801;23;20017;-78
2023/10/23 07:02:09;;;;;;;8.82;6.35;;;5.80;99.90;;;;;;6105951;23;20009;-78
2023/10/23 07:04:34;;;;;;;10.27;7.03;;;5.80;99.90;;;;;;6130345;23;20049;-78
2023/10/23 07:07:00;;;;;;;9.07;7.05;;;5.70;99.90;;;;;;6130655;23;20029;-78
2023/10/23 07:09:26;;;;;;;13.90;7.18;;;5.80;99.90;;;;;;6130605;23;20017;-78
2023/10/23 07:11:54;;;;;;;10.15;7.03;;;5.80;99.90;;;;;;6130830;23;20018;-79
2023/10/23 07:14:20;;;;;;;14.10;8.55;;;5.80;99.90;;;;;;6130620;23;20021;-78
2023/10/23 07:16:46;;;;;;;11.02;7.65;;;5.90;99.90;;;;;;6106039;23;20017;-79
2023/10/23 07:19:12;;;;;;;15.35;9.65;;;5.90;99.90;;;;;;6130756;23;20013;-78
2023/10/23 07:21:37;;;;;;;16.85;10.27;;;5.90;99.90;;;;;;6130304;23;20013;-78
2023/10/23 07:24:04;;;;;;;18.75;11.13;;;6.00;99.90;;;;;;6105842;23;20009;-79
2023/10/23 07:26:29;;;;;;;21.17;12.13;;;6.00;99.90;;;;;;6105607;23;20021;-78
2023/10/23 07:28:55;;;;;;;18.20;11.50;;;6.10;99.90;;;;;;6130275;23;20013;-78
2023/10/23 07:31:21;;;;;;;19.48;12.43;;;6.10;99.90;;;;;;6130426;23;20009;-78
2023/10/23 07:33:47;;;;;;;20.42;12.45;;;6.20;99.90;;;;;;6130724;23;20428;-78
2023/10/23 07:36:14;;;;;;;20.67;12.32;;;6.30;99.90;;;;;;6129201;23;20013;-78
2023/10/23 07:38:43;;;;;;;19.17;12.30;;;6.30;99.90;;;;;;6127645;23;20041;-78
2023/10/23 07:41:13;;;;;;;21.25;13.27;;;6.40;99.90;;;;;;6127957;23;20020;-78
2023/10/23 07:43:39;;;;;;;20.48;12.60;;;6.50;99.90;;;;;;6127628;23;20013;-78
2023/10/23 07:46:07;;;;;;;21.27;12.73;;;6.50;99.90;;;;;;6127751;23;20013;-77
2023/10/23 07:48:32;;;;;;;25.90;14.10;;;6.60;99.90;;;;;;6128260;23;20022;-79
2023/10/23 07:50:59;;;;;;;23.85;13.90;;;6.70;99.90;;;;;;6129197;23;20329;-79
2023/10/23 07:53:25;;;;;;;23.70;13.85;;;6.80;99.90;;;;;;6156434;23;20013;-78
2023/10/23 07:55:51;;;;;;;25.70;14.00;;;6.90;99.90;;;;;;6130166;23;20092;-78
2023/10/23 07:58:17;;;;;;;28.20;14.98;;;7.00;99.90;;;;;;6130635;23;20400;-79
2023/10/23 08:00:43;;;;;;;23.33;15.00;;;7.00;99.90;;;;;;6129904;23;20344;-78
2023/10/23 08:03:09;;;;;;;24.42;14.82;;;7.10;99.90;;;;;;6130228;23;20083;-78
2023/10/23 08:05:35;;;;;;;27.02;15.55;;;7.20;99.90;;;;;;6130119;23;20013;-77
2023/10/23 08:08:01;;;;;;;27.33;15.88;;;7.30;99.90;;;;;;6105611;23;20013;-78
2023/10/23 08:10:27;;;;;;;29.38;16.55;;;7.40;99.90;;;;;;6105576;23;20440;-77
2023/10/23 08:12:53;;;;;;;29.52;16.13;;;7.40;99.90;;;;;;6129749;23;20070;-78
2023/10/23 08:15:18;;;;;;;26.95;15.20;;;7.50;99.90;;;;;;6129803;23;20019;-77
2023/10/23 08:17:44;;;;;;;23.95;13.75;;;7.50;99.90;;;;;;6129575;23;20078;-78
2023/10/23 08:20:10;;;;;;;26.42;14.60;;;7.70;99.90;;;;;;6129590;23;20013;-79
2023/10/23 08:22:36;;;;;;;23.27;14.48;;;7.70;99.90;;;;;;6129581;23;20346;-78
2023/10/23 08:25:02;;;;;;;26.88;15.52;;;7.80;99.90;;;;;;6129650;23;20013;-78
2023/10/23 08:27:28;;;;;;;26.25;15.77;;;7.80;99.90;;;;;;6129308;23;20017;-78
2023/10/23 08:29:54;;;;;;;32.13;16.67;;;7.90;99.90;;;;;;6129547;23;20017;-77
2023/10/23 08:32:19;;;;;;;28.80;14.75;;;8.10;99.90;;;;;;6155801;23;20020;-77
2023/10/23 08:34:45;;;;;;;28.80;14.57;;;8.20;99.90;;;;;;6129576;23;20329;-77
2023/10/23 08:37:10;;;;;;;24.20;11.60;;;8.30;99.90;;;;;;6155534;23;20435;-77
2023/10/23 08:39:37;;;;;;;31.17;11.60;;;8.40;99.90;;;;;;6129399;23;20021;-76
2023/10/23 08:42:03;;;;;;;25.13;11.48;;;8.50;99.90;;;;;;6129554;23;20360;-77
2023/10/23 08:44:29;;;;;;;23.75;11.82;;;8.60;99.90;;;;;;6129445;23;20077;-77
2023/10/23 08:46:55;;;;;;;20.48;11.00;;;8.70;99.90;;;;;;6129397;23;20025;-77
2023/10/23 08:49:21;;;;;;;25.52;12.07;;;8.80;99.90;;;;;;6155446;23;20013;-77
2023/10/23 08:51:53;;;;;;;25.48;9.98;;;9.00;99.90;;;;;;6129633;23;20014;-77
2023/10/23 08:54:20;;;;;;;23.00;10.15;;;9.10;99.90;;;;;;6129757;23;20010;-78
2023/10/23 08:56:55;;;;;;;19.55;9.68;;;9.30;99.90;;;;;;6130022;23;20047;-77
2023/10/23 08:59:20;;;;;;;23.70;10.23;;;9.50;99.90;;;;;;6129687;23;20020;-77
2023/10/23 09:01:46;;;;;;;22.50;10.60;;;9.70;99.90;;;;;;6129075;23;20009;-80
2023/10/23 09:04:12;;;;;;;19.67;9.95;;;9.80;99.90;;;;;;6129852;23;20010;-83
2023/10/23 09:06:38;;;;;;;20.15;10.10;;;10.00;99.90;;;;;;6105616;23;20088;-75
2023/10/23 09:09:07;;;;;;;19.83;9.35;;;10.20;99.90;;;;;;6130513;23;20482;-77
2023/10/23 09:11:37;;;;;;;17.30;9.00;;;10.30;99.90;;;;;;6127377;23;20096;-78
2023/10/23 09:14:02;;;;;;;19.63;9.23;;;10.40;99.90;;;;;;6127517;23;20018;-78
2023/10/23 09:16:28;;;;;;;16.95;8.70;;;10.60;99.90;;;;;;6128456;23;20024;-78
2023/10/23 09:18:55;;;;;;;19.35;10.07;;;10.70;99.90;;;;;;6129624;23;20024;-77
2023/10/23 09:21:21;;;;;;;18.73;9.25;;;10.80;99.90;;;;;;6129573;23;20013;-77
2023/10/23 09:23:55;;;;;;;15.32;8.82;;;10.90;99.90;;;;;;6129461;23;20025;-77
2023/10/23 09:26:22;;;;;;;15.55;9.13;;;11.10;99.90;;;;;;6155820;23;20009;-78
2023/10/23 09:28:54;;;;;;;15.98;9.20;;;11.20;99.90;;;;;;6129713;23;20443;-78
2023/10/23 09:31:21;;;;;;;14.63;8.70;;;11.30;99.90;;;;;;6129571;23;20013;-78
2023/10/23 09:33:49;;;;;;;14.43;8.30;;;11.40;99.90;;;;;;6129713;23;20064;-78
2023/10/23 09:36:16;;;;;;;12.45;7.47;;;11.50;99.90;;;;;;6156345;23;20076;-78
2023/10/23 09:39:02;;;;;;;15.32;10.57;;;11.60;99.90;;;;;;6127709;23;20344;-77
2023/10/23 09:41:28;;;;;;;16.38;9.88;;;11.70;99.90;;;;;;6155635;23;20041;-78
2023/10/23 09:43:57;;;;;;;14.05;8.68;;;11.80;99.90;;;;;;6129707;23;20036;-77
2023/10/23 09:46:25;;;;;;;12.88;7.32;;;11.90;99.90;;;;;;6129540;23;20021;-78
2023/10/23 09:48:52;;;;;;;13.05;7.70;;;12.00;99.90;;;;;;6105152;23;20010;-79
2023/10/23 09:51:21;;;;;;;15.27;7.72;;;12.00;99.90;;;;;;6129915;23;20009;-78
2023/10/23 09:53:59;;;;;;;11.90;7.47;;;12.10;99.90;;;;;;6129508;23;20021;-78
2023/10/23 09:56:29;;;;;;;13.95;7.80;;;12.20;99.90;;;;;;6129725;23;20104;-77
2023/10/23 09:59:00;;;;;;;12.18;7.65;;;12.30;99.90;;;;;;6104360;23;20009;-78
2023/10/23 10:01:42;;;;;;;13.57;7.90;;;12.30;99.90;;;;;;6156028;23;20014;-77
2023/10/23 10:04:23;;;;;;;13.90;7.85;;;12.40;99.90;;;;;;6131379;23;20009;-78
2023/10/23 10:06:54;;;;;;;12.88;7.00;;;12.60;99.90;;;;;;6130083;23;20100;-77
2023/10/23 10:09:22;;;;;;;12.77;7.47;;;12.70;99.90;;;;;;6131337;23;20017;-78
2023/10/23 10:11:49;;;;;;;11.57;6.88;;;12.80;99.90;;;;;;6131609;23;20472;-78
2023/10/23 10:14:16;;;;;;;10.32;6.35;;;12.80;99.90;;;;;;6131386;23;20013;-78
2023/10/23 10:16:42;;;;;;;10.95;6.68;;;12.80;99.90;;;;;;6131153;23;20024;-79
2023/10/23 10:19:08;;;;;;;10.48;6.15;;;12.90;99.90;;;;;;6130723;23;20016;-78
2023/10/23 10:21:50;;;;;;;11.35;6.15;;;12.90;99.90;;;;;;6131139;23;20014;-78
2023/10/23 10:24:16;;;;;;;10.48;6.13;;;12.90;99.90;;;;;;6131313;23;20025;-77
2023/10/23 10:26:42;;;;;;;9.40;5.82;;;13.00;99.90;;;;;;6131170;23;20017;-78
2023/10/23 10:29:09;;;;;;;12.07;6.00;;;13.10;99.90;;;;;;6130977;23;20056;-78
2023/10/23 10:32:20;;;;;;;11.60;6.38;;;13.10;99.90;;;;;;6131015;23;20455;-78
2023/10/23 10:34:46;;;;;;;12.68;4.85;;;13.20;99.90;;;;;;6151679;23;20014;-78
2023/10/23 10:37:12;;;;;;;12.23;4.97;;;13.30;99.90;;;;;;6130955;23;20022;-78
2023/10/23 10:39:46;;;;;;;8.57;4.40;;;13.30;99.90;;;;;;6131025;23;20466;-78
2023/10/23 10:42:33;;;;;;;10.07;4.63;;;13.30;99.90;;;;;;6158013;23;20016;-78
2023/10/23 10:45:13;;;;;;;8.85;4.88;;;13.30;99.90;;;;;;6130898;23;20024;-78
2023/10/23 10:47:40;;;;;;;13.15;4.78;;;13.30;99.90;;;;;;6106533;23;20014;-78
2023/10/23 10:50:07;;;;;;;12.77;5.22;;;13.30;99.90;;;;;;6130831;23;20018;-78
2023/10/23 10:52:35;;;;;;;11.73;4.53;;;13.40;99.90;;;;;;6130647;23;20017;-78
2023/10/23 10:55:08;;;;;;;6.85;3.92;;;13.40;99.90;;;;;;6156845;23;20021;-78
2023/10/23 10:57:39;;;;;;;7.32;4.05;;;13.40;99.90;;;;;;6130701;23;20518;-79
2023/10/23 11:00:06;;;;;;;7.63;4.22;;;13.50;99.90;;;;;;6157546;23;20455;-79
2023/10/23 11:02:32;;;;;;;8.75;3.83;;;13.50;99.90;;;;;;6130419;23;20013;-78
2023/10/23 11:04:57;;;;;;;10.10;5.70;;;13.50;99.90;;;;;;6130710;23;20096;-78
2023/10/23 11:07:26;;;;;;;10.27;4.30;;;13.60;99.90;;;;;;6130746;23;20350;-78
2023/10/23 11:09:53;;;;;;;12.10;5.63;;;13.50;99.90;;;;;;6130693;23;20336;-78
2023/10/23 11:12:19;;;;;;;16.38;8.55;;;13.50;99.90;;;;;;6130481;23;20022;-80
2023/10/23 11:14:48;;;;;;;11.13;6.90;;;13.40;99.90;;;;;;6130651;23;20021;-78
2023/10/23 11:17:15;;;;;;;12.93;7.90;;;13.40;99.90;;;;;;6130272;23;20072;-78
2023/10/23 11:19:44;;;;;;;15.20;8.13;;;13.40;99.90;;;;;;6130607;23;20010;-79
2023/10/23 11:22:12;;;;;;;15.48;8.38;;;13.20;99.90;;;;;;6130371;23;20060;-78
2023/10/23 11:24:38;;;;;;;13.73;7.95;;;13.10;99.90;;;;;;6130660;23;20088;-78
2023/10/23 11:27:07;;;;;;;15.20;7.85;;;13.00;99.90;;;;;;6130488;23;20068;-79
2023/10/23 11:30:00;;;;;;;16.10;7.40;;;12.80;99.90;;;;;;6156627;23;20009;-78
2023/10/23 11:32:28;;;;;;;13.52;6.47;;;12.60;99.90;;;;;;6125336;23;20343;-79
2023/10/23 11:35:00;;;;;;;12.88;7.03;;;12.60;99.90;;;;;;6130324;23;20006;-80
2023/10/23 11:37:26;;;;;;;14.02;7.40;;;12.50;99.90;;;;;;6130469;23;20407;-78
2023/10/23 11:39:52;;;;;;;13.05;6.75;;;12.40;99.90;;;;;;6130478;23;20014;-79
2023/10/23 11:42:17;;;;;;;12.98;6.95;;;12.40;99.90;;;;;;6130317;23;20068;-78
2023/10/23 11:44:43;;;;;;;13.98;7.65;;;12.30;99.90;;;;;;6131642;23;20502;-78
2023/10/23 11:47:09;;;;;;;12.90;6.95;;;12.30;99.90;;;;;;6130174;23;20324;-78
2023/10/23 11:49:35;;;;;;;14.30;7.50;;;12.40;99.90;;;;;;6130245;23;20021;-79
2023/10/23 11:52:02;;;;;;;16.17;8.10;;;12.30;99.90;;;;;;6129987;23;20499;-78
2023/10/23 11:54:28;;;;;;;16.52;8.07;;;12.40;99.90;;;;;;6130279;23;20340;-78
2023/10/23 11:56:58;;;;;;;16.80;8.13;;;12.30;99.90;;;;;;6130194;23;20024;-78
2023/10/23 11:59:25;;;;;;;17.10;8.65;;;12.20;99.90;;;;;;6130115;23;20088;-78
2023/10/23 12:01:52;;;;;;;16.77;8.88;;;12.20;99.90;;;;;;6130093;23;20020;-79
2023/10/23 12:04:18;;;;;;;18.20;9.18;;;12.20;99.90;;;;;;6156311;23;20033;-78
2023/10/23 12:06:44;;;;;;;18.00;8.77;;;12.20;99.90;;;;;;6130174;23;20097;-79
2023/10/23 12:09:10;;;;;;;18.92;9.30;;;12.20;99.90;;;;;;6130304;23;20025;-79
2023/10/23 12:11:36;;;;;;;19.90;9.90;;;12.10;99.90;;;;;;6129841;23;20017;-78
2023/10/23 12:14:03;;;;;;;19.35;9.52;;;12.10;99.90;;;;;;6105658;23;20029;-78
2023/10/23 12:16:30;;;;;;;21.17;9.35;;;12.20;99.90;;;;;;6129949;23;20044;-79
2023/10/23 12:18:56;;;;;;;18.83;9.82;;;12.20;99.90;;;;;;6129946;23;20014;-78
2023/10/23 12:21:22;;;;;;;19.45;9.73;;;12.30;99.90;;;;;;6130207;23;20039;-79
2023/10/23 12:23:49;;;;;;;18.85;10.05;;;12.30;99.90;;;;;;6156295;23;20065;-79
2023/10/23 12:26:16;;;;;;;22.88;10.25;;;12.30;99.90;;;;;;6129944;23;20386;-78
2023/10/23 12:28:42;;;;;;;23.90;12.95;;;12.40;99.90;;;;;;6130231;23;20458;-77
2023/10/23 12:31:07;;;;;;;25.33;12.50;;;12.40;99.90;;;;;;6156590;23;20014;-78
2023/10/23 12:33:33;;;;;;;22.02;11.18;;;12.40;99.90;;;;;;6130367;23;20016;-77
2023/10/23 12:36:03;;;;;;;24.02;11.30;;;12.40;99.90;;;;;;6129933;23;20045;-78
2023/10/23 12:38:35;;;;;;;23.90;15.30;;;12.40;99.90;;;;;;6129788;23;20024;-79
2023/10/23 12:41:02;;;;;;;24.90;14.68;;;12.40;99.90;;;;;;6155763;23;20448;-78
2023/10/23 12:43:27;;;;;;;25.13;15.18;;;12.50;99.90;;;;;;6130227;23;20013;-78
2023/10/23 12:45:53;;;;;;;22.65;12.35;;;12.50;99.90;;;;;;6129763;23;20017;-79
2023/10/23 12:48:19;;;;;;;22.13;11.75;;;12.50;99.90;;;;;;6129728;23;20451;-78
2023/10/23 12:50:45;;;;;;;24.63;13.60;;;12.50;99.90;;;;;;6129639;23;20466;-79
2023/10/23 12:53:11;;;;;;;23.30;12.35;;;12.50;99.90;;;;;;6129719;23;20014;-79
2023/10/23 12:55:36;;;;;;;22.35;12.07;;;12.50;99.90;;;;;;6129639;23;20017;-78
2023/10/23 12:58:03;;;;;;;20.58;11.48;;;12.50;99.90;;;;;;6129605;23;20076;-79
2023/10/23 13:00:32;;;;;;;21.80;12.25;;;12.50;99.90;;;;;;6105071;23;20017;-78
2023/10/23 13:02:57;;;;;;;20.13;11.82;;;12.50;99.90;;;;;;6156153;23;20010;-78
2023/10/23 13:05:23;;;;;;;23.67;12.63;;;12.50;99.90;;;;;;6129702;23;20045;-79
2023/10/23 13:07:49;;;;;;;23.05;12.07;;;12.50;99.90;;;;;;6129667;23;20510;-78
2023/10/23 13:10:15;;;;;;;22.15;11.30;;;12.50;99.90;;;;;;6129572;23;20053;-78
2023/10/23 13:12:41;;;;;;;20.27;10.77;;;12.50;99.90;;;;;;6155719;23;20009;-79
2023/10/23 13:15:07;;;;;;;17.60;10.02;;;12.50;99.90;;;;;;6129664;23;20343;-79
2023/10/23 13:17:33;;;;;;;17.65;9.93;;;12.50;99.90;;;;;;6105044;23;20017;-80
2023/10/23 13:19:59;;;;;;;21.20;12.18;;;12.50;99.90;;;;;;6129662;23;20017;-78
2023/10/23 13:22:24;;;;;;;21.27;11.55;;;12.50;99.90;;;;;;6129412;23;20093;-80
2023/10/23 13:24:50;;;;;;;19.60;11.23;;;12.50;99.90;;;;;;6155581;23;20009;-78
2023/10/23 13:27:16;;;;;;;19.80;10.63;;;12.50;99.90;;;;;;6129497;23;20104;-78
2023/10/23 13:29:42;;;;;;;18.65;11.10;;;12.50;99.90;;;;;;6129583;23;20024;-79
2023/10/23 13:32:08;;;;;;;17.30;10.38;;;12.50;99.90;;;;;;6129469;23;20017;-79
2023/10/23 13:34:33;;;;;;;20.38;10.98;;;12.50;99.90;;;;;;6105250;23;20144;-78
2023/10/23 13:36:59;;;;;;;21.30;11.45;;;12.50;99.90;;;;;;6130864;23;20021;-79
2023/10/23 13:39:25;;;;;;;17.77;11.02;;;12.50;99.90;;;;;;6157661;23;20036;-79
2023/10/23 13:41:50;;;;;;;23.63;12.15;;;12.50;99.90;;;;;;6157838;23;20014;-79
2023/10/23 13:44:16;;;;;;;20.00;11.32;;;12.50;99.90;;;;;;6131336;23;20016;-79
2023/10/23 13:46:42;;;;;;;21.73;11.77;;;12.50;99.90;;;;;;6131402;23;20396;-79
2023/10/23 13:49:08;;;;;;;20.90;12.00;;;12.50;99.90;;;;;;6157407;23;20146;-78
2023/10/23 13:51:34;;;;;;;21.67;12.45;;;12.50;99.90;;;;;;6131346;23;20039;-80
2023/10/23 13:54:00;;;;;;;23.55;11.55;;;12.60;99.90;;;;;;6131308;23;20491;-79
2023/10/23 13:56:26;;;;;;;21.08;11.25;;;12.60;99.90;;;;;;6131137;23;20056;-78
2023/10/23 13:58:52;;;;;;;18.02;10.05;;;12.60;99.90;;;;;;6131159;23;20408;-78
2023/10/23 14:01:18;;;;;;;21.02;11.32;;;12.60;99.90;;;;;;6130949;23;20014;-78
2023/10/23 14:03:44;;;;;;;18.50;9.38;;;12.50;99.90;;;;;;6158098;23;20072;-78
2023/10/23 14:06:10;;;;;;;30.45;9.77;;;12.50;99.90;;;;;;6131224;23;20010;-78
2023/10/23 14:08:37;;;;;;;19.85;9.13;;;12.50;99.90;;;;;;6131172;23;20048;-79
2023/10/23 14:11:03;;;;;;;20.92;10.05;;;12.50;99.90;;;;;;6131127;23;20440;-77
2023/10/23 14:13:29;;;;;;;28.80;13.88;;;12.50;99.90;;;;;;6131141;23;20040;-78
2023/10/23 14:15:55;;;;;;;23.92;12.57;;;12.40;99.90;;;;;;6157562;23;20439;-78
2023/10/23 14:18:20;;;;;;;26.55;13.05;;;12.50;99.90;;;;;;6130852;23;20443;-79
2023/10/23 14:20:46;;;;;;;26.60;13.63;;;12.40;99.90;;;;;;6131694;23;20088;-77
2023/10/23 14:23:12;;;;;;;23.05;10.20;;;12.40;99.90;;;;;;6131257;23;20423;-78
2023/10/23 14:25:38;;;;;;;26.33;11.70;;;12.30;99.90;;;;;;6157424;23;20440;-78
2023/10/23 14:28:04;;;;;;;26.45;11.95;;;12.30;99.90;;;;;;6130954;23;20018;-78
2023/10/23 14:30:30;;;;;;;21.55;9.98;;;12.20;99.90;;;;;;6157396;23;20332;-79
2023/10/23 14:32:55;;;;;;;22.38;10.52;;;12.20;99.90;;;;;;6130951;23;20032;-78
2023/10/23 14:35:21;;;;;;;24.33;10.82;;;12.20;99.90;;;;;;6157104;23;20018;-78
2023/10/23 14:37:46;;;;;;;22.23;10.65;;;12.10;99.90;;;;;;6106375;23;20013;-77
2023/10/23 14:40:13;;;;;;;21.30;10.38;;;12.10;99.90;;;;;;6130711;23;20010;-78
2023/10/23 14:42:39;;;;;;;22.00;10.68;;;12.10;99.90;;;;;;6156842;23;20013;-78
2023/10/23 14:45:05;;;;;;;25.30;10.77;;;12.10;99.90;;;;;;6130814;23;20021;-78
2023/10/23 14:47:32;;;;;;;26.55;10.05;;;12.00;99.90;;;;;;6156725;23;20010;-78
2023/10/23 14:49:58;;;;;;;25.02;10.30;;;12.00;99.90;;;;;;6130747;23;20013;-78
2023/10/23 14:52:23;;;;;;;20.70;10.07;;;12.00;99.90;;;;;;6130640;23;20022;-78
2023/10/23 14:54:54;;;;;;;20.80;9.77;;;11.90;99.90;;;;;;6130735;23;20018;-78
2023/10/23 14:57:20;;;;;;;26.83;15.85;;;11.90;99.90;;;;;;6130977;23;20021;-78
2023/10/23 14:59:45;;;;;;;26.30;15.93;;;11.90;99.90;;;;;;6156759;23;20455;-77
2023/10/23 15:02:11;;;;;;;28.00;16.33;;;11.80;99.90;;;;;;6130446;23;20064;-78
2023/10/23 15:04:37;;;;;;;29.92;16.60;;;11.90;99.90;;;;;;6130601;23;20072;-79
2023/10/23 15:07:02;;;;;;;30.48;17.05;;;11.80;99.90;;;;;;6130714;23;20094;-78
2023/10/23 15:09:28;;;;;;;28.90;16.88;;;11.80;99.90;;;;;;6128854;23;20064;-79
2023/10/23 15:11:54;;;;;;;26.35;15.95;;;11.80;99.90;;;;;;6129612;23;20017;-79
2023/10/23 15:14:20;;;;;;;28.95;16.73;;;11.80;99.90;;;;;;6106336;23;20014;-78
2023/10/23 15:16:45;;;;;;;28.13;15.52;;;11.70;99.90;;;;;;6130508;23;20022;-79
2023/10/23 15:19:11;;;;;;;25.20;11.77;;;11.70;99.90;;;;;;6130357;23;20318;-78
2023/10/23 15:21:39;;;;;;;25.85;12.18;;;11.70;99.90;;;;;;6156919;23;20009;-79
2023/10/23 15:24:08;;;;;;;22.75;10.77;;;11.70;99.90;;;;;;6130505;23;20021;-78
2023/10/23 15:26:34;;;;;;;23.27;11.38;;;11.60;99.90;;;;;;6130492;23;20075;-78
2023/10/23 15:29:00;;;;;;;22.83;10.68;;;11.60;99.90;;;;;;6156569;23;20010;-77
2023/10/23 15:31:26;;;;;;;23.58;10.93;;;11.60;99.90;;;;;;6130383;23;20014;-78
2023/10/23 15:33:52;;;;;;;25.00;11.38;;;11.50;99.90;;;;;;6130435;23;20019;-78
2023/10/23 15:36:18;;;;;;;26.35;11.43;;;11.50;99.90;;;;;;6130372;23;20040;-79